createdAt,value
2022-09-13T00:00:12.898Z,4.80
2022-09-13T00:05:15.801Z,4.60
2022-09-13T00:10:18.514Z,4.35
2022-09-13T00:15:22.442Z,5.78
2022-09-13T00:20:26.504Z,5.38
2022-09-13T00:25:29.179Z,5.47
2022-09-13T00:30:33.446Z,5.10
2022-09-13T00:35:35.886Z,5.38
2022-09-13T00:40:39.118Z,5.35
2022-09-13T00:45:43.161Z,4.60
2022-09-13T00:50:51.941Z,5.15
2022-09-13T00:55:59.041Z,5.38
2022-09-13T01:01:08.963Z,4.85
2022-09-13T01:06:15.245Z,5.30
2022-09-13T01:11:25.119Z,4.80
2022-09-13T01:16:29.104Z,4.68
2022-09-13T01:22:10.882Z,4.53
2022-09-13T01:27:38.361Z,5.07
2022-09-13T01:33:06.734Z,4.72
2022-09-13T01:38:26.782Z,5.18
2022-09-13T01:43:43.945Z,5.00
2022-09-13T01:48:56.346Z,5.18
2022-09-13T01:54:14.431Z,4.97
2022-09-13T01:59:23.893Z,5.50
2022-09-13T02:04:35.295Z,5.40
2022-09-13T02:09:42.765Z,5.18
2022-09-13T02:14:49.820Z,5.22
2022-09-13T02:19:58.519Z,5.22
2022-09-13T02:25:06.066Z,5.10
2022-09-13T02:30:11.154Z,5.07
2022-09-13T02:35:20.385Z,5.63
2022-09-13T02:40:34.419Z,4.78
2022-09-13T02:45:46.597Z,5.32
2022-09-13T02:51:01.047Z,5.15
2022-09-13T02:56:12.336Z,5.03
2022-09-13T03:01:16.155Z,5.55
2022-09-13T03:06:25.306Z,6.22
2022-09-13T03:11:42.489Z,5.88
2022-09-13T03:17:00.898Z,5.28
2022-09-13T03:22:28.910Z,5.60
2022-09-13T03:27:40.714Z,5.70
2022-09-13T03:32:51.746Z,5.60
2022-09-13T03:37:59.269Z,5.22
2022-09-13T03:43:09.441Z,5.57
2022-09-13T03:48:13.515Z,5.80
2022-09-13T03:53:22.979Z,5.90
2022-09-13T03:58:27.368Z,5.50
2022-09-13T04:08:35.846Z,5.97
2022-09-13T04:13:38.981Z,5.68
2022-09-13T04:18:41.507Z,6.10
2022-09-13T04:23:45.528Z,6.30
2022-09-13T04:28:48.080Z,5.72
2022-09-13T04:33:50.765Z,6.20
2022-09-13T04:38:54.810Z,6.00
2022-09-13T04:43:57.535Z,7.18
2022-09-13T04:49:00.132Z,6.15
2022-09-13T04:54:04.434Z,6.63
2022-09-13T04:59:07.002Z,6.78
2022-09-13T05:04:10.658Z,6.03
2022-09-13T05:09:16.671Z,6.50
2022-09-13T05:14:20.979Z,6.25
2022-09-13T05:19:24.524Z,6.55
2022-09-13T05:24:28.646Z,6.33
2022-09-13T05:29:31.105Z,6.60
2022-09-13T05:34:33.575Z,6.25
2022-09-13T05:40:00.404Z,6.18
2022-09-13T05:45:00.110Z,6.27
2022-09-13T05:50:10.438Z,6.82
2022-09-13T05:55:16.182Z,5.75
2022-09-13T06:00:18.867Z,6.50
2022-09-13T06:05:21.353Z,6.50
2022-09-13T06:10:25.321Z,5.72
2022-09-13T06:15:27.769Z,6.28
2022-09-13T06:20:31.164Z,6.35
2022-09-13T06:25:35.050Z,6.37
2022-09-13T06:30:38.075Z,6.50
2022-09-13T06:35:40.540Z,6.93
2022-09-13T06:40:44.826Z,6.53
2022-09-13T06:50:51.910Z,7.10
2022-09-13T06:56:03.607Z,7.30
2022-09-13T07:01:12.635Z,6.88
2022-09-13T07:06:21.512Z,7.10
2022-09-13T07:11:29.882Z,6.70
2022-09-13T07:16:33.868Z,7.43
2022-09-13T07:21:36.744Z,6.75
2022-09-13T07:26:40.527Z,6.30
2022-09-13T07:31:45.450Z,5.97
2022-09-13T07:36:49.271Z,6.80
2022-09-13T07:41:53.830Z,7.10
2022-09-13T07:46:56.939Z,6.18
2022-09-13T07:51:59.429Z,7.97
2022-09-13T07:57:03.309Z,6.97
2022-09-13T08:02:05.917Z,7.97
2022-09-13T08:07:08.475Z,7.45
2022-09-13T08:12:12.331Z,6.97
2022-09-13T08:17:14.973Z,7.28
2022-09-13T08:22:17.523Z,7.05
2022-09-13T08:27:21.311Z,6.60
2022-09-13T08:32:23.826Z,5.57
2022-09-13T08:37:26.372Z,4.65
2022-09-13T08:42:47.249Z,5.25
2022-09-13T08:47:57.421Z,5.32
2022-09-13T08:53:09.638Z,5.68
2022-09-13T08:58:31.062Z,5.00
2022-09-13T09:03:42.853Z,5.68
2022-09-13T09:08:50.704Z,4.60
2022-09-13T09:13:58.697Z,5.18
2022-09-13T09:19:10.934Z,5.00
2022-09-13T09:24:19.938Z,5.00
2022-09-13T09:29:27.030Z,5.15
2022-09-13T09:34:43.793Z,5.13
2022-09-13T09:39:46.625Z,5.07
2022-09-13T09:44:53.377Z,5.03
2022-09-13T09:50:10.774Z,4.57
2022-09-13T09:55:21.180Z,4.70
2022-09-13T10:00:28.375Z,4.75
2022-09-13T10:05:32.455Z,4.70
2022-09-13T10:10:41.691Z,3.92
2022-09-13T10:15:55.408Z,4.35
2022-09-13T10:21:04.217Z,4.28
2022-09-13T10:26:12.242Z,4.10
2022-09-13T10:31:17.973Z,4.10
2022-09-13T10:36:50.722Z,3.90
2022-09-13T10:41:52.051Z,3.67
2022-09-13T10:46:56.437Z,3.78
2022-09-13T10:51:58.900Z,4.30
2022-09-13T10:57:01.839Z,4.97
2022-09-13T11:02:36.294Z,5.03
2022-09-13T11:12:55.889Z,5.10
2022-09-13T11:18:25.898Z,4.85
2022-09-13T11:23:42.996Z,4.13
2022-09-13T11:28:57.742Z,4.70
2022-09-13T11:34:13.001Z,3.92
2022-09-13T11:39:28.064Z,3.60
2022-09-13T11:44:52.169Z,3.15
2022-09-13T11:50:11.132Z,2.83
2022-09-13T11:55:18.863Z,2.90
2022-09-13T12:00:23.950Z,2.20
2022-09-13T12:05:32.976Z,2.63
2022-09-13T12:10:45.783Z,2.25
2022-09-13T12:15:52.880Z,2.10
2022-09-13T12:21:00.615Z,2.60
2022-09-13T12:26:09.972Z,2.15
2022-09-13T12:31:17.001Z,2.30
2022-09-13T12:36:57.380Z,2.40
2022-09-13T12:42:27.418Z,1.80
2022-09-13T12:47:55.218Z,1.80
2022-09-13T12:53:10.738Z,1.63
2022-09-13T12:58:30.325Z,1.88
2022-09-13T13:03:38.356Z,1.70
2022-09-13T13:08:51.613Z,1.80
2022-09-13T13:13:59.113Z,1.80
2022-09-13T13:19:08.670Z,1.70
2022-09-13T13:24:47.112Z,1.95
2022-09-13T13:30:36.037Z,1.70
2022-09-13T13:35:38.729Z,1.70
2022-09-13T13:40:42.776Z,1.50
2022-09-13T13:45:59.964Z,1.40
2022-09-13T13:51:27.329Z,1.20
2022-09-13T13:56:48.095Z,1.25
2022-09-13T14:01:55.360Z,1.50
2022-09-13T14:07:18.980Z,1.55
2022-09-13T14:12:47.657Z,1.30
2022-09-13T14:18:22.457Z,1.30
2022-09-13T14:23:25.185Z,1.98
2022-09-13T14:28:29.657Z,1.40
2022-09-13T14:33:36.226Z,1.50
2022-09-13T14:38:38.942Z,1.50
2022-09-13T14:43:43.593Z,1.70
2022-09-13T14:48:51.525Z,1.23
2022-09-13T14:53:58.188Z,1.60
2022-09-13T14:59:06.669Z,1.40
2022-09-13T15:04:09.233Z,1.20
2022-09-13T15:09:18.609Z,1.40
2022-09-13T15:14:28.207Z,1.35
2022-09-13T15:19:37.667Z,1.10
2022-09-13T15:24:44.957Z,1.25
2022-09-13T15:29:53.995Z,1.65
2022-09-13T15:34:58.429Z,1.15
2022-09-13T15:40:14.385Z,1.13
2022-09-13T15:45:19.709Z,1.15
2022-09-13T15:50:26.911Z,1.30
2022-09-13T15:55:29.774Z,1.35
2022-09-13T16:00:33.768Z,1.40
2022-09-13T16:05:36.878Z,1.33
2022-09-13T16:10:39.658Z,1.40
2022-09-13T16:15:44.150Z,1.40
2022-09-13T16:20:46.767Z,1.17
2022-09-13T16:25:50.213Z,1.20
2022-09-13T16:30:54.737Z,1.50
2022-09-13T16:36:02.008Z,1.75
2022-09-13T16:41:07.189Z,2.00
2022-09-13T16:46:13.502Z,1.50
2022-09-13T16:51:16.374Z,1.92
2022-09-13T16:56:21.569Z,2.77
2022-09-13T17:01:27.455Z,3.22
2022-09-13T17:06:30.456Z,3.20
2022-09-13T17:11:38.406Z,3.40
2022-09-13T17:16:45.046Z,3.40
2022-09-13T17:21:48.695Z,3.22
2022-09-13T17:26:51.356Z,3.35
2022-09-13T17:31:55.166Z,3.28
2022-09-13T17:42:00.231Z,4.18
2022-09-13T17:47:04.254Z,3.55
2022-09-13T17:52:08.175Z,3.70
2022-09-13T17:57:11.861Z,4.28
2022-09-13T18:02:16.202Z,4.18
2022-09-13T18:07:19.165Z,4.18
2022-09-13T18:12:21.832Z,3.90
2022-09-13T18:17:25.745Z,4.43
2022-09-13T18:27:30.725Z,4.10
2022-09-13T18:32:34.646Z,4.70
2022-09-13T18:42:41.008Z,4.13
2022-09-13T18:47:45.039Z,4.00
2022-09-13T18:52:47.575Z,4.68
2022-09-13T18:57:49.995Z,4.55
2022-09-13T19:03:11.253Z,5.10
2022-09-13T19:08:14.573Z,3.95
2022-09-13T19:13:17.188Z,4.68
2022-09-13T19:18:21.097Z,4.75
2022-09-13T19:23:33.779Z,4.35
2022-09-13T19:28:47.820Z,5.15
2022-09-13T19:33:52.178Z,5.40
2022-09-13T19:38:57.023Z,5.18
2022-09-13T19:44:01.717Z,5.80
2022-09-13T19:49:06.947Z,5.03
2022-09-13T19:54:12.316Z,5.60
2022-09-13T19:59:19.728Z,5.40
2022-09-13T20:04:25.530Z,5.72
2022-09-13T20:09:28.216Z,4.95
2022-09-13T20:14:34.811Z,6.18
2022-09-13T20:19:43.525Z,5.28
2022-09-13T20:24:48.736Z,5.93
2022-09-13T20:29:51.696Z,5.10
2022-09-13T20:34:55.666Z,5.65
2022-09-13T20:40:03.185Z,6.03
2022-09-13T20:45:07.452Z,5.72
2022-09-13T20:50:12.209Z,5.55
2022-09-13T20:55:15.745Z,6.18
2022-09-13T21:00:18.307Z,5.60
2022-09-13T21:05:22.102Z,5.72
2022-09-13T21:10:26.126Z,6.38
2022-09-13T21:15:28.608Z,6.25
2022-09-13T21:20:33.995Z,6.47
2022-09-13T21:25:37.269Z,6.38
2022-09-13T21:30:40.958Z,6.30
2022-09-13T21:35:44.977Z,6.55
2022-09-13T21:41:00.033Z,6.30
2022-09-13T21:46:04.747Z,5.85
2022-09-13T21:51:11.586Z,5.90
2022-09-13T21:56:16.720Z,6.43
2022-09-13T22:01:22.535Z,6.35
2022-09-13T22:06:31.354Z,6.97
2022-09-13T22:11:38.474Z,6.60
2022-09-13T22:16:43.377Z,6.40
2022-09-13T22:21:49.053Z,7.70
2022-09-13T22:26:53.173Z,6.50
2022-09-13T22:31:55.838Z,6.43
2022-09-13T22:37:02.965Z,6.15
2022-09-13T22:42:05.996Z,6.97
2022-09-13T22:47:09.279Z,7.15
2022-09-13T22:52:13.258Z,7.27
2022-09-13T22:57:15.664Z,7.00
2022-09-13T23:02:18.126Z,7.65
2022-09-13T23:07:21.930Z,7.68
2022-09-13T23:12:24.507Z,8.93
2022-09-13T23:17:27.172Z,9.05
2022-09-13T23:22:31.186Z,8.90
2022-09-13T23:27:33.636Z,9.10
2022-09-13T23:32:36.067Z,10.27
2022-09-13T23:37:40.168Z,9.57
2022-09-13T23:42:42.780Z,10.45
2022-09-13T23:47:45.310Z,11.40
2022-09-13T23:52:49.396Z,10.27
2022-09-13T23:57:51.860Z,10.75
